Terminal Aerodrome Forecast
Issued by NWS

Home | Current Version | Previous Version | Text Only | Print | Product List | Glossary On
Versions: 1 2 3 4 5 6 7 8 9 10 11 12 13 14 15 16 17
000
FTUS43 KAPX 240500
TAFTVC
TAF
KTVC 240520Z 2406/2506 15003KT P6SM BKN025 OVC070
     FM240700 00000KT 6SM BR OVC018
     FM241600 24005KT P6SM OVC022
     FM242000 24005KT P6SM SCT026
     FM250000 20003KT P6SM FEW120=

USA.gov is the U.S. government's official web portal to all federal, state and local government web resources and services.